Kuala Belait, Brunei
Current Conditions -  °F | °C
As of 8:00 PM on Sunday 21 Dec 2014 (Local Time) from WBGR Reporting Station
Broken Clouds Broken Clouds  
Wind Chill: 81°   Ceiling: 30000
Heat Index: 86°   Visibility: 6mi
Dew Point: 75°   Wind: 3mph
Humidity: 84%   Direction: 50°NE
Pressure: 29.77"   Gusts: NA
Location:  4.59°N, 114.18°E
Report Text: WBGR 211200Z 05003KT 9999 SCT014 SCT150 BKN300 27/24 Q1008
Loading
Personal Weather Stations






























Interactive Weather Map New forecast layout! Learn more

10-Day Weather Forecast

Advertisements
Track Severe Weather on mobile